Time;durP1;ratioP1;P1;durP2;ratioP2;P2;SDS_P1;SDS_P2;PMS_P1;PMS_P2;Temp;Humidity;BMP_temperature;BMP_pressure;BME280_temperature;BME280_humidity;BME280_pressure;Samples;Min_cycle;Max_cycle;Signal;HPM_P1;HPM_P2
2022/10/04 00:01:29;;;;;;;;;30.75;30.00;;;;;;;;5025675;27;51239;-48
2022/10/04 00:04:10;;;;;;;;;28.75;27.75;;;;;;;;5004655;28;51136;-49
2022/10/04 00:06:37;;;;;;;;;29.75;27.75;;;;;;;;5001110;27;50919;-48
2022/10/04 00:09:07;;;;;;;;;31.25;30.00;;;;;;;;4993109;27;51336;-51
2022/10/04 00:11:34;;;;;;;;;32.25;29.25;;;;;;;;5004959;27;51090;-50
2022/10/04 00:14:04;;;;;;;;;31.75;30.25;;;;;;;;5002132;28;51209;-48
2022/10/04 00:16:31;;;;;;;;;24.50;22.75;;;;;;;;5023527;27;51093;-50
2022/10/04 00:19:28;;;;;;;;;29.00;27.50;;;;;;;;4999793;28;51023;-48
2022/10/04 00:21:56;;;;;;;;;34.00;32.00;;;;;;;;5026128;28;51121;-48
2022/10/04 00:24:23;;;;;;;;;32.50;30.75;;;;;;;;5002541;27;51012;-49
2022/10/04 00:26:48;;;;;;;;;31.75;30.25;;;;;;;;4998825;28;50991;-49
2022/10/04 00:29:42;;;;;;;;;34.20;31.40;;;;;;;;5009140;27;51998;-49
2022/10/04 00:32:11;;;;;;;;;30.25;28.25;;;;;;;;5014913;28;51023;-51
2022/10/04 00:34:49;;;;;;;;;31.50;30.50;;;;;;;;5008959;28;51138;-48
2022/10/04 00:37:15;;;;;;;;;29.00;27.50;;;;;;;;5009336;28;50835;-48
2022/10/04 00:39:42;;;;;;;;;33.50;31.00;;;;;;;;5010608;28;52144;-48
2022/10/04 00:42:22;;;;;;;;;30.50;30.00;;;;;;;;4998382;28;51019;-49
2022/10/04 00:44:52;;;;;;;;;30.25;26.50;;;;;;;;5009342;28;51059;-48
2022/10/04 00:47:36;;;;;;;;;32.75;31.50;;;;;;;;5040139;27;51331;-49
2022/10/04 00:50:15;;;;;;;;;34.50;32.75;;;;;;;;5010480;27;52364;-48
2022/10/04 00:52:42;;;;;;;;;36.00;32.25;;;;;;;;5012598;28;51173;-47
2022/10/04 00:55:08;;;;;;;;;30.00;28.00;;;;;;;;5010451;27;51178;-49
2022/10/04 00:57:38;;;;;;;;;29.00;28.25;;;;;;;;5009545;28;51047;-50
2022/10/04 01:00:06;;;;;;;;;30.00;28.75;;;;;;;;5007290;28;53945;-49
2022/10/04 01:02:37;;;;;;;;;36.00;33.50;;;;;;;;5020146;27;51241;-48
2022/10/04 01:05:06;;;;;;;;;35.50;32.25;;;;;;;;5008491;28;51042;-48
2022/10/04 01:07:32;;;;;;;;;30.50;26.25;;;;;;;;5009930;27;51086;-49
2022/10/04 01:10:00;;;;;;;;;37.25;30.75;;;;;;;;5007222;28;51174;-49
2022/10/04 01:12:37;;;;;;;;;31.50;28.75;;;;;;;;5008071;28;51245;-49
2022/10/04 01:15:15;;;;;;;;;34.50;29.00;;;;;;;;5002027;28;51128;-49
2022/10/04 01:17:40;;;;;;;;;32.75;30.50;;;;;;;;5031450;27;51121;-50
2022/10/04 01:20:25;;;;;;;;;32.75;30.75;;;;;;;;5009455;28;53099;-49
2022/10/04 01:22:51;;;;;;;;;33.50;30.75;;;;;;;;5006049;28;51588;-47
2022/10/04 01:25:39;;;;;;;;;30.50;28.50;;;;;;;;5008298;27;51459;-48
2022/10/04 01:28:04;;;;;;;;;34.75;31.00;;;;;;;;4999979;28;51519;-52
2022/10/04 01:30:30;;;;;;;;;34.00;33.25;;;;;;;;5008852;28;51669;-49
2022/10/04 01:32:55;;;;;;;;;40.75;33.50;;;;;;;;5006598;27;51108;-49
2022/10/04 01:35:20;;;;;;;;;32.75;30.00;;;;;;;;5009543;28;50851;-49
2022/10/04 01:37:45;;;;;;;;;36.25;33.25;;;;;;;;5005314;27;51088;-47
2022/10/04 01:40:11;;;;;;;;;35.50;33.50;;;;;;;;5009878;28;51087;-48
2022/10/04 01:42:43;;;;;;;;;31.75;30.50;;;;;;;;5007981;27;53522;-47
2022/10/04 01:45:09;;;;;;;;;32.00;30.00;;;;;;;;5009156;27;51266;-48
2022/10/04 01:47:40;;;;;;;;;31.50;27.50;;;;;;;;5008802;28;51235;-49
2022/10/04 01:50:07;;;;;;;;;35.25;33.00;;;;;;;;5009272;28;52170;-48
2022/10/04 01:52:36;;;;;;;;;34.00;31.50;;;;;;;;5010384;28;51090;-48
2022/10/04 01:55:08;;;;;;;;;31.00;29.25;;;;;;;;5007120;28;51132;-48
2022/10/04 01:57:40;;;;;;;;;33.00;31.00;;;;;;;;5005071;28;51252;-48
2022/10/04 02:00:11;;;;;;;;;29.50;29.50;;;;;;;;5002343;28;51168;-49
2022/10/04 02:02:42;;;;;;;;;35.50;33.25;;;;;;;;4997714;28;51008;-48
2022/10/04 02:05:09;;;;;;;;;36.25;31.75;;;;;;;;5008373;28;51750;-48
2022/10/04 02:07:36;;;;;;;;;29.00;27.75;;;;;;;;5009050;27;51194;-48
2022/10/04 02:10:04;;;;;;;;;37.25;32.75;;;;;;;;5006923;28;52835;-48
2022/10/04 02:12:32;;;;;;;;;29.75;28.75;;;;;;;;5006805;28;50964;-49
2022/10/04 02:15:00;;;;;;;;;35.50;30.50;;;;;;;;5005628;27;51913;-48
2022/10/04 02:17:28;;;;;;;;;30.50;29.25;;;;;;;;5034442;27;51252;-50
2022/10/04 02:19:53;;;;;;;;;34.00;28.75;;;;;;;;5008807;27;51327;-51
2022/10/04 02:22:19;;;;;;;;;31.50;29.75;;;;;;;;5007893;28;51370;-49
2022/10/04 02:24:47;;;;;;;;;33.25;28.50;;;;;;;;5006609;28;51058;-48
2022/10/04 02:27:12;;;;;;;;;35.50;33.75;;;;;;;;5009057;27;51439;-49
2022/10/04 02:29:37;;;;;;;;;34.75;29.25;;;;;;;;5008451;27;51703;-47
2022/10/04 02:34:48;;;;;;;;;30.25;29.00;;;;;;;;5002174;28;51153;-47
2022/10/04 02:37:14;;;;;;;;;32.25;30.25;;;;;;;;5005288;28;51364;-48
2022/10/04 02:39:45;;;;;;;;;33.50;30.25;;;;;;;;5006595;28;51110;-48
2022/10/04 02:42:14;;;;;;;;;31.50;29.50;;;;;;;;5004764;28;51309;-48
2022/10/04 02:44:51;;;;;;;;;32.25;28.50;;;;;;;;5008415;27;51238;-49
2022/10/04 02:47:22;;;;;;;;;33.50;31.00;;;;;;;;4998508;28;51037;-49
2022/10/04 02:49:52;;;;;;;;;27.25;24.75;;;;;;;;5007037;28;51103;-49
2022/10/04 02:52:41;;;;;;;;;30.25;29.75;;;;;;;;5009400;27;50974;-51
2022/10/04 02:55:17;;;;;;;;;32.50;31.00;;;;;;;;5009004;27;51165;-50
2022/10/04 02:57:42;;;;;;;;;28.25;27.00;;;;;;;;5016513;27;50980;-48
2022/10/04 03:00:08;;;;;;;;;28.75;26.75;;;;;;;;5010765;27;51992;-50
2022/10/04 03:02:33;;;;;;;;;32.50;27.25;;;;;;;;5025834;27;51636;-50
2022/10/04 03:05:03;;;;;;;;;32.00;28.50;;;;;;;;5005903;27;51153;-49
2022/10/04 03:07:29;;;;;;;;;31.25;27.50;;;;;;;;5004710;27;51209;-49
2022/10/04 03:09:55;;;;;;;;;24.25;21.75;;;;;;;;5026627;28;52795;-51
2022/10/04 03:12:21;;;;;;;;;18.00;13.50;;;;;;;;5006958;28;51024;-49
2022/10/04 03:14:46;;;;;;;;;26.00;24.25;;;;;;;;5008917;27;51081;-49
2022/10/04 03:17:13;;;;;;;;;28.75;27.00;;;;;;;;5001259;27;51273;-49
2022/10/04 03:19:39;;;;;;;;;24.75;22.75;;;;;;;;5008560;28;52160;-49
2022/10/04 03:22:08;;;;;;;;;25.50;25.50;;;;;;;;5014693;27;51000;-52
2022/10/04 03:24:37;;;;;;;;;25.50;23.50;;;;;;;;5006379;28;51054;-49
2022/10/04 03:27:05;;;;;;;;;26.25;25.00;;;;;;;;5007919;27;51325;-49
2022/10/04 03:29:32;;;;;;;;;26.75;25.25;;;;;;;;5005889;27;53246;-50
2022/10/04 03:31:59;;;;;;;;;27.00;25.25;;;;;;;;5008580;27;51014;-50
2022/10/04 03:34:32;;;;;;;;;27.75;24.50;;;;;;;;5009227;27;50955;-49
2022/10/04 03:36:58;;;;;;;;;29.75;26.75;;;;;;;;5010894;27;51094;-50
2022/10/04 03:39:32;;;;;;;;;32.50;30.00;;;;;;;;5008126;27;51301;-49
2022/10/04 03:41:58;;;;;;;;;30.00;28.00;;;;;;;;4997218;28;50910;-50
2022/10/04 03:44:24;;;;;;;;;25.25;23.75;;;;;;;;5008079;28;51104;-50
2022/10/04 03:46:49;;;;;;;;;29.50;25.00;;;;;;;;5009481;27;51012;-48
2022/10/04 03:49:17;;;;;;;;;32.75;28.50;;;;;;;;5001873;28;51128;-51
2022/10/04 03:51:45;;;;;;;;;27.00;22.75;;;;;;;;5008382;27;51113;-48
2022/10/04 03:54:15;;;;;;;;;22.75;20.50;;;;;;;;5012089;28;51045;-51
2022/10/04 03:56:40;;;;;;;;;26.50;24.75;;;;;;;;5007087;27;50902;-50
2022/10/04 03:59:06;;;;;;;;;32.50;29.25;;;;;;;;5007504;28;51845;-50
2022/10/04 04:01:31;;;;;;;;;26.25;25.50;;;;;;;;5009492;27;51113;-49
2022/10/04 04:04:14;;;;;;;;;36.00;30.50;;;;;;;;5009664;28;51301;-49
2022/10/04 04:06:49;;;;;;;;;33.75;30.00;;;;;;;;5016498;27;51222;-48
2022/10/04 04:09:24;;;;;;;;;33.25;30.25;;;;;;;;5003744;28;52192;-48
2022/10/04 04:11:50;;;;;;;;;33.00;30.00;;;;;;;;5001707;28;51099;-48
2022/10/04 04:14:21;;;;;;;;;33.00;31.75;;;;;;;;5006700;28;51024;-49
2022/10/04 04:16:46;;;;;;;;;29.75;27.75;;;;;;;;5011239;27;51045;-48
2022/10/04 04:19:15;;;;;;;;;36.25;33.00;;;;;;;;5007248;27;51717;-49
2022/10/04 04:21:40;;;;;;;;;32.25;32.00;;;;;;;;5008314;27;51273;-50
2022/10/04 04:24:13;;;;;;;;;41.25;37.50;;;;;;;;5010268;28;51097;-46
2022/10/04 04:26:41;;;;;;;;;41.75;36.50;;;;;;;;5007492;27;50999;-49
2022/10/04 04:29:09;;;;;;;;;31.00;27.25;;;;;;;;5010231;28;51134;-49
2022/10/04 04:31:41;;;;;;;;;35.50;33.50;;;;;;;;5029909;27;51229;-48
2022/10/04 04:34:21;;;;;;;;;37.75;32.50;;;;;;;;5010532;28;51059;-48
2022/10/04 04:36:46;;;;;;;;;38.75;35.75;;;;;;;;5010371;27;51227;-55
2022/10/04 04:39:42;;;;;;;;;36.75;32.75;;;;;;;;5011005;28;52005;-48
2022/10/04 04:42:14;;;;;;;;;38.25;35.25;;;;;;;;5011190;27;51396;-51
2022/10/04 04:44:46;;;;;;;;;40.25;34.25;;;;;;;;5009430;28;51241;-49
2022/10/04 04:47:18;;;;;;;;;38.50;34.00;;;;;;;;5013688;27;51182;-50
2022/10/04 04:49:44;;;;;;;;;34.00;32.50;;;;;;;;5022626;27;51168;-50
2022/10/04 04:52:15;;;;;;;;;33.75;32.25;;;;;;;;5008533;28;50992;-49
2022/10/04 04:54:42;;;;;;;;;31.50;30.00;;;;;;;;5003930;28;50903;-51
2022/10/04 04:57:07;;;;;;;;;33.00;30.75;;;;;;;;5009473;27;50839;-48
2022/10/04 04:59:33;;;;;;;;;38.00;36.00;;;;;;;;5000964;28;52162;-48
2022/10/04 05:01:58;;;;;;;;;31.50;31.00;;;;;;;;5016369;27;51322;-48
2022/10/04 05:04:25;;;;;;;;;32.50;31.50;;;;;;;;5011358;27;51195;-49
2022/10/04 05:07:15;;;;;;;;;32.50;31.25;;;;;;;;5005616;27;51495;-48
2022/10/04 05:09:40;;;;;;;;;34.75;33.00;;;;;;;;5002917;28;51890;-47
2022/10/04 05:12:20;;;;;;;;;31.25;30.50;;;;;;;;5016586;27;51220;-49
2022/10/04 05:14:50;;;;;;;;;36.00;33.75;;;;;;;;5001899;28;51118;-48
2022/10/04 05:17:31;;;;;;;;;34.25;31.75;;;;;;;;5056036;27;51197;-48
2022/10/04 05:19:58;;;;;;;;;34.25;32.00;;;;;;;;5014181;27;52535;-49
2022/10/04 05:22:24;;;;;;;;;31.50;29.50;;;;;;;;5000833;28;50928;-49
2022/10/04 05:24:59;;;;;;;;;34.25;31.00;;;;;;;;4999044;27;51137;-50
2022/10/04 05:27:28;;;;;;;;;34.25;33.50;;;;;;;;5010012;28;50953;-48
2022/10/04 05:30:07;;;;;;;;;36.00;33.00;;;;;;;;5002506;27;51148;-51
2022/10/04 05:32:53;;;;;;;;;35.75;32.50;;;;;;;;5003077;27;51345;-49
2022/10/04 05:35:20;;;;;;;;;36.00;32.00;;;;;;;;5001520;28;52103;-51
2022/10/04 05:37:54;;;;;;;;;30.00;27.25;;;;;;;;5009998;28;51116;-49
2022/10/04 05:40:26;;;;;;;;;35.25;30.25;;;;;;;;5009674;27;52315;-51
2022/10/04 05:42:54;;;;;;;;;32.75;30.25;;;;;;;;5007835;27;51276;-50
2022/10/04 05:45:24;;;;;;;;;31.75;29.50;;;;;;;;5015040;27;51182;-50
2022/10/04 05:47:52;;;;;;;;;30.75;30.00;;;;;;;;5011066;28;51054;-48
2022/10/04 05:50:47;;;;;;;;;33.50;31.25;;;;;;;;5010173;28;51883;-51
2022/10/04 05:53:14;;;;;;;;;31.75;29.00;;;;;;;;5008684;28;51164;-48
2022/10/04 05:55:55;;;;;;;;;37.50;34.00;;;;;;;;5009371;28;50846;-49
2022/10/04 05:58:31;;;;;;;;;29.75;29.25;;;;;;;;4998833;28;51022;-48
2022/10/04 06:01:15;;;;;;;;;16.00;15.00;;;;;;;;5045132;27;51438;-53
2022/10/04 06:03:40;;;;;;;;;32.50;30.00;;;;;;;;5005437;27;51104;-49
2022/10/04 06:06:08;;;;;;;;;36.75;32.50;;;;;;;;5003284;27;51342;-48
2022/10/04 06:08:58;;;;;;;;;31.75;30.75;;;;;;;;5006702;28;51215;-51
2022/10/04 06:11:43;;;;;;;;;31.25;30.25;;;;;;;;5005147;28;51848;-51
2022/10/04 06:14:09;;;;;;;;;35.25;31.25;;;;;;;;5008460;28;51248;-49
2022/10/04 06:16:53;;;;;;;;;31.25;30.50;;;;;;;;5030015;27;51051;-49
2022/10/04 06:19:27;;;;;;;;;32.25;29.25;;;;;;;;5004972;27;51353;-50
2022/10/04 06:22:05;;;;;;;;;31.75;30.00;;;;;;;;5008108;28;50934;-49
2022/10/04 06:24:36;;;;;;;;;30.50;28.50;;;;;;;;5028587;27;51073;-50
2022/10/04 06:27:09;;;;;;;;;36.75;34.75;;;;;;;;5023407;27;51161;-49
2022/10/04 06:29:37;;;;;;;;;41.25;34.00;;;;;;;;5023064;27;51411;-50
2022/10/04 06:32:23;;;;;;;;;37.25;33.75;;;;;;;;5011378;27;53018;-48
2022/10/04 06:34:54;;;;;;;;;37.50;33.50;;;;;;;;5008737;27;51085;-49
2022/10/04 06:37:37;;;;;;;;;35.25;33.50;;;;;;;;5009000;28;50909;-48
2022/10/04 06:40:02;;;;;;;;;35.50;33.75;;;;;;;;5009926;28;51064;-51
2022/10/04 06:42:34;;;;;;;;;40.75;35.75;;;;;;;;5009447;28;51995;-49
2022/10/04 06:45:11;;;;;;;;;33.75;32.75;;;;;;;;5009420;27;51133;-48
2022/10/04 06:47:46;;;;;;;;;32.25;30.50;;;;;;;;5008285;27;51325;-48
2022/10/04 06:50:15;;;;;;;;;38.50;33.25;;;;;;;;5009793;28;51196;-49
2022/10/04 06:52:43;;;;;;;;;36.75;34.75;;;;;;;;5019882;27;51093;-48
2022/10/04 06:55:20;;;;;;;;;39.75;35.75;;;;;;;;4996141;28;51226;-48
2022/10/04 06:58:01;;;;;;;;;37.00;34.00;;;;;;;;5009382;28;51025;-51
2022/10/04 07:00:27;;;;;;;;;37.50;33.75;;;;;;;;5023853;27;50941;-50
2022/10/04 07:02:59;;;;;;;;;29.25;29.25;;;;;;;;5035757;27;50959;-49
2022/10/04 07:05:45;;;;;;;;;34.50;30.75;;;;;;;;5007444;28;51006;-50
2022/10/04 07:08:29;;;;;;;;;40.75;35.50;;;;;;;;5008962;27;50987;-49
2022/10/04 07:10:57;;;;;;;;;37.00;34.25;;;;;;;;5006322;28;51170;-48
2022/10/04 07:13:23;;;;;;;;;37.25;32.75;;;;;;;;5008793;27;51063;-48
2022/10/04 07:16:00;;;;;;;;;26.50;24.75;;;;;;;;5028150;27;51138;-48
2022/10/04 07:18:29;;;;;;;;;26.50;22.50;;;;;;;;5009520;27;51146;-48
2022/10/04 07:21:02;;;;;;;;;36.75;32.75;;;;;;;;5009738;28;50851;-47
2022/10/04 07:23:30;;;;;;;;;38.75;33.25;;;;;;;;5008985;28;51105;-48
2022/10/04 07:26:03;;;;;;;;;34.75;32.50;;;;;;;;5009441;27;51093;-48
2022/10/04 07:31:27;;;;;;;;;35.50;32.75;;;;;;;;5009366;28;50922;-48
2022/10/04 07:33:55;;;;;;;;;37.50;34.25;;;;;;;;5009043;28;51718;-49
2022/10/04 07:36:24;;;;;;;;;37.00;33.50;;;;;;;;5007196;28;51061;-50
2022/10/04 07:38:54;;;;;;;;;35.50;32.75;;;;;;;;5009126;28;51083;-50
2022/10/04 07:41:26;;;;;;;;;33.25;31.00;;;;;;;;4996843;28;51072;-49
2022/10/04 07:43:58;;;;;;;;;32.75;30.50;;;;;;;;5008985;28;51988;-50
2022/10/04 07:46:41;;;;;;;;;38.00;33.25;;;;;;;;5009167;28;51178;-50
2022/10/04 07:49:14;;;;;;;;;36.50;33.25;;;;;;;;5008745;27;51145;-48
2022/10/04 07:51:45;;;;;;;;;34.00;30.75;;;;;;;;5009304;28;51169;-51
2022/10/04 07:54:10;;;;;;;;;37.75;34.25;;;;;;;;5020625;27;52117;-49
2022/10/04 07:56:35;;;;;;;;;36.75;33.25;;;;;;;;5008927;28;50842;-49
2022/10/04 07:59:19;;;;;;;;;32.50;30.75;;;;;;;;5008632;27;50817;-49
2022/10/04 08:01:53;;;;;;;;;31.50;30.00;;;;;;;;5012549;27;51890;-49
2022/10/04 08:04:34;;;;;;;;;33.00;30.75;;;;;;;;4995339;28;51811;-48
2022/10/04 08:07:01;;;;;;;;;33.50;31.00;;;;;;;;5008785;27;50994;-51
2022/10/04 08:09:45;;;;;;;;;33.75;31.00;;;;;;;;5008968;27;51036;-48
2022/10/04 08:12:16;;;;;;;;;38.00;33.25;;;;;;;;5008568;28;51906;-51
2022/10/04 08:14:53;;;;;;;;;36.50;33.00;;;;;;;;5008454;28;51967;-49
2022/10/04 08:17:36;;;;;;;;;34.00;32.25;;;;;;;;5056232;27;50996;-49
2022/10/04 08:20:16;;;;;;;;;35.50;32.00;;;;;;;;5008715;28;50991;-50
2022/10/04 08:23:00;;;;;;;;;35.50;32.00;;;;;;;;5009152;27;51440;-50
2022/10/04 08:25:28;;;;;;;;;38.75;33.00;;;;;;;;5008237;27;51171;-48
2022/10/04 08:30:52;;;;;;;;;41.00;36.00;;;;;;;;5008707;28;51072;-49
2022/10/04 08:33:41;;;;;;;;;38.00;34.00;;;;;;;;5008501;27;51226;-57
2022/10/04 08:36:12;;;;;;;;;36.25;33.50;;;;;;;;5008419;28;51983;-50
2022/10/04 08:38:43;;;;;;;;;33.00;31.50;;;;;;;;5007151;27;51030;-49
2022/10/04 08:41:19;;;;;;;;;39.50;34.50;;;;;;;;5008499;28;50940;-51
2022/10/04 08:43:58;;;;;;;;;38.75;34.50;;;;;;;;4995308;27;51098;-50
2022/10/04 08:46:43;;;;;;;;;42.50;35.00;;;;;;;;5006446;28;51775;-49
2022/10/04 08:49:28;;;;;;;;;37.75;33.25;;;;;;;;5010104;28;51036;-50
2022/10/04 08:52:12;;;;;;;;;37.00;31.75;;;;;;;;5011307;27;51070;-50
2022/10/04 08:54:56;;;;;;;;;40.00;34.75;;;;;;;;5011524;27;51039;-50
2022/10/04 08:58:03;;;;;;;;;41.25;34.00;;;;;;;;5009212;28;52078;-51
2022/10/04 09:00:37;;;;;;;;;38.75;33.75;;;;;;;;5031719;28;51271;-50
2022/10/04 09:03:05;;;;;;;;;37.00;33.75;;;;;;;;5032469;28;51076;-51
2022/10/04 09:05:39;;;;;;;;;43.50;35.50;;;;;;;;5020724;27;51233;-53
2022/10/04 09:08:19;;;;;;;;;45.00;38.25;;;;;;;;5010619;27;51104;-48
2022/10/04 09:10:45;;;;;;;;;38.75;35.00;;;;;;;;5004418;27;51190;-49
2022/10/04 09:13:11;;;;;;;;;38.25;33.25;;;;;;;;5011301;28;50926;-50
2022/10/04 09:15:36;;;;;;;;;35.75;33.00;;;;;;;;5022465;27;51369;-49
2022/10/04 09:18:01;;;;;;;;;39.20;34.40;;;;;;;;5049835;27;51275;-50
2022/10/04 09:20:45;;;;;;;;;40.25;34.50;;;;;;;;5010082;28;51184;-48
2022/10/04 09:23:13;;;;;;;;;43.75;37.25;;;;;;;;5009389;28;50995;-49
2022/10/04 09:25:44;;;;;;;;;43.25;37.50;;;;;;;;5011194;27;51227;-51
2022/10/04 09:28:28;;;;;;;;;41.50;35.25;;;;;;;;5010489;27;51028;-50
2022/10/04 09:31:16;;;;;;;;;45.50;38.50;;;;;;;;5010622;28;51017;-50
2022/10/04 09:33:44;;;;;;;;;38.50;33.25;;;;;;;;5010783;28;51028;-49
2022/10/04 09:36:10;;;;;;;;;43.25;37.50;;;;;;;;5010499;27;51086;-50
2022/10/04 09:38:39;;;;;;;;;43.75;37.75;;;;;;;;5010484;27;51042;-51
2022/10/04 09:41:21;;;;;;;;;43.00;36.75;;;;;;;;5010304;28;50928;-51
2022/10/04 09:44:05;;;;;;;;;43.25;36.25;;;;;;;;5010567;28;51012;-51
2022/10/04 09:46:31;;;;;;;;;42.75;36.75;;;;;;;;5010452;28;51066;-50
2022/10/04 09:48:56;;;;;;;;;37.75;33.50;;;;;;;;5009985;28;51525;-49
2022/10/04 09:51:22;;;;;;;;;36.25;32.00;;;;;;;;5010757;27;51062;-52
2022/10/04 09:54:06;;;;;;;;;35.00;32.00;;;;;;;;5021959;28;51073;-49
2022/10/04 09:56:34;;;;;;;;;45.75;39.25;;;;;;;;5010968;27;51427;-49
2022/10/04 09:59:20;;;;;;;;;42.50;36.50;;;;;;;;5009739;28;51845;-51
2022/10/04 10:02:01;;;;;;;;;45.50;38.75;;;;;;;;5067437;27;51032;-50
2022/10/04 10:04:34;;;;;;;;;46.25;38.00;;;;;;;;5010515;28;50984;-51
2022/10/04 10:07:02;;;;;;;;;46.50;39.75;;;;;;;;5010246;27;51153;-54
2022/10/04 10:15:11;;;;;;;;;43.25;36.25;;;;;;;;5010541;28;50992;-49
2022/10/04 10:17:50;;;;;;;;;45.00;36.75;;;;;;;;5042718;27;51469;-49
2022/10/04 10:20:37;;;;;;;;;44.25;37.00;;;;;;;;5009863;28;51948;-51
2022/10/04 10:23:14;;;;;;;;;46.00;38.00;;;;;;;;5009756;28;51024;-52
2022/10/04 10:25:48;;;;;;;;;36.25;32.75;;;;;;;;5010180;27;51142;-51
2022/10/04 10:28:32;;;;;;;;;43.75;36.50;;;;;;;;5010437;27;51023;-51
2022/10/04 10:31:09;;;;;;;;;44.25;37.00;;;;;;;;5008977;27;51263;-53
2022/10/04 10:33:53;;;;;;;;;44.25;37.00;;;;;;;;5005357;27;51219;-51
2022/10/04 10:36:21;;;;;;;;;43.50;36.00;;;;;;;;5010097;28;50960;-51
2022/10/04 10:38:54;;;;;;;;;43.75;35.50;;;;;;;;5010074;27;50916;-49
2022/10/04 10:41:26;;;;;;;;;44.25;37.75;;;;;;;;5009614;28;52066;-52
2022/10/04 10:43:51;;;;;;;;;40.50;35.50;;;;;;;;5009627;28;51039;-49
2022/10/04 10:46:20;;;;;;;;;44.75;37.25;;;;;;;;5009598;27;51011;-51
2022/10/04 10:48:51;;;;;;;;;45.75;38.00;;;;;;;;5009790;28;50866;-51
2022/10/04 10:51:33;;;;;;;;;45.25;38.00;;;;;;;;5009352;27;51228;-50
2022/10/04 10:54:24;;;;;;;;;43.00;35.50;;;;;;;;5014166;28;51078;-50
2022/10/04 10:56:49;;;;;;;;;46.75;39.50;;;;;;;;4999528;28;50976;-51
2022/10/04 10:59:33;;;;;;;;;40.50;35.00;;;;;;;;5009438;27;51403;-50
2022/10/04 11:02:13;;;;;;;;;36.50;32.00;;;;;;;;5029880;27;53256;-49
2022/10/04 11:04:48;;;;;;;;;43.25;36.25;;;;;;;;5009412;28;50970;-48
2022/10/04 11:07:21;;;;;;;;;40.25;34.50;;;;;;;;5009042;28;50961;-52
2022/10/04 11:10:10;;;;;;;;;38.75;34.00;;;;;;;;5009532;28;51169;-52
2022/10/04 11:12:54;;;;;;;;;40.00;34.25;;;;;;;;5011016;28;51292;-51
2022/10/04 11:15:38;;;;;;;;;37.25;33.75;;;;;;;;5009186;28;50869;-50
2022/10/04 11:18:03;;;;;;;;;34.75;32.25;;;;;;;;5000073;28;51097;-52
2022/10/04 11:20:41;;;;;;;;;39.50;34.00;;;;;;;;5004778;28;51370;-51
2022/10/04 11:23:13;;;;;;;;;34.50;32.00;;;;;;;;5008783;28;51838;-50
2022/10/04 11:25:40;;;;;;;;;40.00;35.00;;;;;;;;5009008;28;50937;-52
2022/10/04 11:28:08;;;;;;;;;30.75;30.00;;;;;;;;5009262;28;51281;-51
2022/10/04 11:31:00;;;;;;;;;35.75;32.00;;;;;;;;5009285;28;51389;-52
2022/10/04 11:34:07;;;;;;;;;34.00;31.25;;;;;;;;5008760;27;51143;-50
2022/10/04 11:37:00;;;;;;;;;35.25;31.50;;;;;;;;5049714;28;50970;-50
2022/10/04 11:39:34;;;;;;;;;32.00;30.75;;;;;;;;5020160;28;51242;-49
2022/10/04 11:42:06;;;;;;;;;27.50;27.50;;;;;;;;5019800;28;50947;-49
2022/10/04 11:44:39;;;;;;;;;31.50;29.75;;;;;;;;5008724;28;50920;-50
2022/10/04 11:47:06;;;;;;;;;36.00;31.00;;;;;;;;5008730;28;50979;-51
2022/10/04 11:49:55;;;;;;;;;29.00;29.00;;;;;;;;5009203;28;50878;-50
2022/10/04 11:52:35;;;;;;;;;32.00;30.00;;;;;;;;5012775;28;50992;-51
2022/10/04 11:55:22;;;;;;;;;20.25;20.00;;;;;;;;5012642;28;51895;-50
2022/10/04 11:57:50;;;;;;;;;23.50;23.50;;;;;;;;5008542;27;50926;-52
2022/10/04 12:00:22;;;;;;;;;26.00;22.25;;;;;;;;5014823;27;50939;-51
2022/10/04 12:02:55;;;;;;;;;19.50;19.50;;;;;;;;5042882;27;51401;-50
2022/10/04 12:05:26;;;;;;;;;20.25;20.25;;;;;;;;5008381;28;51985;-50
2022/10/04 12:08:12;;;;;;;;;22.75;22.75;;;;;;;;5008166;27;51213;-53
2022/10/04 12:10:39;;;;;;;;;17.00;15.67;;;;;;;;5008844;28;51040;-50
2022/10/04 12:13:10;;;;;;;;;11.33;11.33;;;;;;;;5007974;27;50915;-50
2022/10/04 12:15:46;;;;;;;;;15.67;13.67;;;;;;;;5019651;27;51928;-49
2022/10/04 12:18:27;;;;;;;;;19.33;18.67;;;;;;;;5009674;27;51046;-51
2022/10/04 12:20:52;;;;;;;;;16.33;16.00;;;;;;;;4998477;28;51185;-51
2022/10/04 12:23:29;;;;;;;;;16.00;15.67;;;;;;;;5002630;28;51059;-52
2022/10/04 12:26:06;;;;;;;;;14.67;13.67;;;;;;;;5011410;28;51101;-50
2022/10/04 12:28:50;;;;;;;;;14.67;14.33;;;;;;;;5011490;28;51008;-52
2022/10/04 12:31:27;;;;;;;;;18.00;18.00;;;;;;;;5011334;28;50979;-50
2022/10/04 12:33:53;;;;;;;;;21.75;21.50;;;;;;;;5011789;27;51122;-51
2022/10/04 12:36:23;;;;;;;;;17.33;16.67;;;;;;;;5011457;28;51760;-51
2022/10/04 12:38:55;;;;;;;;;18.33;16.00;;;;;;;;5011400;28;50973;-50
2022/10/04 12:41:29;;;;;;;;;21.67;20.00;;;;;;;;5011225;28;50957;-51
2022/10/04 12:43:55;;;;;;;;;19.00;18.00;;;;;;;;5011552;28;51154;-49
2022/10/04 12:46:28;;;;;;;;;14.67;13.67;;;;;;;;5011256;28;51809;-51
2022/10/04 12:49:02;;;;;;;;;21.00;20.25;;;;;;;;5011166;28;51032;-51
2022/10/04 12:51:47;;;;;;;;;17.00;17.00;;;;;;;;5011152;28;51207;-50
2022/10/04 12:54:12;;;;;;;;;14.00;14.00;;;;;;;;5015685;28;52018;-49
2022/10/04 12:56:37;;;;;;;;;16.00;14.67;;;;;;;;5010305;28;52070;-50
2022/10/04 12:59:02;;;;;;;;;14.00;14.00;;;;;;;;5010415;28;51036;-49
2022/10/04 13:01:40;;;;;;;;;10.00;9.00;;;;;;;;5032704;27;51082;-50
2022/10/04 13:04:20;;;;;;;;;14.00;13.00;;;;;;;;5006301;27;50910;-50
2022/10/04 13:06:58;;;;;;;;;12.00;12.00;;;;;;;;5010362;28;51028;-51
2022/10/04 13:09:29;;;;;;;;;13.33;12.00;;;;;;;;5010431;28;50884;-49
2022/10/04 13:12:03;;;;;;;;;12.00;11.00;;;;;;;;5010846;27;51262;-50
2022/10/04 13:14:33;;;;;;;;;11.67;11.33;;;;;;;;5011465;28;51133;-49
2022/10/04 13:17:17;;;;;;;;;14.00;13.00;;;;;;;;5075174;27;51153;-49
2022/10/04 13:19:49;;;;;;;;;15.33;15.00;;;;;;;;5007379;28;51131;-50
2022/10/04 13:22:33;;;;;;;;;15.67;15.00;;;;;;;;5009818;28;51307;-49
2022/10/04 13:25:06;;;;;;;;;12.00;11.33;;;;;;;;5010714;27;52098;-49
2022/10/04 13:27:37;;;;;;;;;11.67;10.00;;;;;;;;5010666;28;51957;-52
2022/10/04 13:30:14;;;;;;;;;12.00;12.00;;;;;;;;5010232;28;51135;-49
2022/10/04 13:32:44;;;;;;;;;11.67;11.67;;;;;;;;5010678;28;51102;-50
2022/10/04 13:35:13;;;;;;;;;12.67;11.67;;;;;;;;5010476;28;51234;-50
2022/10/04 13:37:38;;;;;;;;;11.00;11.00;;;;;;;;5010134;28;52162;-50
2022/10/04 13:40:13;;;;;;;;;10.67;9.33;;;;;;;;5010847;27;51098;-49
2022/10/04 13:42:38;;;;;;;;;11.67;11.67;;;;;;;;5010545;27;51246;-50
2022/10/04 13:45:23;;;;;;;;;9.67;9.67;;;;;;;;5011001;28;51070;-49
2022/10/04 13:48:06;;;;;;;;;11.00;10.00;;;;;;;;5010435;28;51969;-52
2022/10/04 13:50:57;;;;;;;;;12.00;10.00;;;;;;;;5010216;27;50981;-50
2022/10/04 13:56:39;;;;;;;;;11.67;11.33;;;;;;;;5010322;28;50907;-50
2022/10/04 13:59:15;;;;;;;;;10.00;10.00;;;;;;;;5009872;28;52769;-50
2022/10/04 14:01:40;;;;;;;;;11.33;11.00;;;;;;;;5016752;27;51123;-49
2022/10/04 14:04:05;;;;;;;;;11.00;10.00;;;;;;;;5010109;28;50929;-50
2022/10/04 14:06:45;;;;;;;;;10.75;9.75;;;;;;;;5010853;27;51269;-53
2022/10/04 14:09:22;;;;;;;;;10.00;9.00;;;;;;;;5004689;27;52000;-48
2022/10/04 14:11:53;;;;;;;;;11.00;11.00;;;;;;;;4993632;28;51120;-51
2022/10/04 14:14:19;;;;;;;;;12.67;12.00;;;;;;;;5008284;28;51052;-48
2022/10/04 14:17:03;;;;;;;;;9.25;8.50;;;;;;;;5012029;27;51098;-51
2022/10/04 14:19:28;;;;;;;;;10.67;10.67;;;;;;;;5009983;28;51117;-52
2022/10/04 14:22:03;;;;;;;;;10.67;10.00;;;;;;;;5010241;27;51126;-51
2022/10/04 14:24:37;;;;;;;;;12.00;11.00;;;;;;;;5010273;28;50965;-48
2022/10/04 14:27:09;;;;;;;;;13.00;11.33;;;;;;;;5009744;27;51310;-51
2022/10/04 14:29:44;;;;;;;;;12.67;11.67;;;;;;;;5009285;27;50924;-52
2022/10/04 14:32:35;;;;;;;;;14.00;13.00;;;;;;;;5009291;28;50971;-49
2022/10/04 14:35:05;;;;;;;;;11.67;11.00;;;;;;;;5009342;28;50889;-49
2022/10/04 14:37:33;;;;;;;;;15.00;13.67;;;;;;;;5009300;28;51085;-53
2022/10/04 14:40:20;;;;;;;;;16.00;15.33;;;;;;;;5009501;28;51892;-49
2022/10/04 14:42:54;;;;;;;;;12.33;12.33;;;;;;;;5009664;28;50988;-49
2022/10/04 14:45:25;;;;;;;;;11.33;10.33;;;;;;;;5009027;27;51161;-49
2022/10/04 14:48:10;;;;;;;;;11.33;11.00;;;;;;;;5009623;28;50946;-51
2022/10/04 14:50:45;;;;;;;;;12.00;11.00;;;;;;;;5009677;28;51975;-49
2022/10/04 14:53:23;;;;;;;;;11.67;11.33;;;;;;;;5007674;28;51171;-49
2022/10/04 14:56:08;;;;;;;;;13.00;12.00;;;;;;;;5009487;28;51024;-52
2022/10/04 14:58:45;;;;;;;;;10.67;10.00;;;;;;;;5009619;28;51278;-49
2022/10/04 15:01:20;;;;;;;;;14.00;12.00;;;;;;;;5041109;27;51920;-51
2022/10/04 15:04:10;;;;;;;;;11.33;11.00;;;;;;;;5009158;28;51032;-50
2022/10/04 15:06:47;;;;;;;;;10.33;10.00;;;;;;;;5009151;28;51025;-50
2022/10/04 15:09:22;;;;;;;;;9.00;9.00;;;;;;;;5009102;28;52059;-52
2022/10/04 15:11:53;;;;;;;;;10.00;10.00;;;;;;;;5009057;28;51116;-51